sensor_id;sensor_type;location;lat;lon;timestamp;pressure;altitude;pressure_sealevel;temperature;humidity
72925;BME280;61070;50.794;7.054;2023-04-24T00:00:21;99458.13;;;11.52;88.81
72925;BME280;61070;50.794;7.054;2023-04-24T00:02:46;99450.63;;;11.63;88.51
72925;BME280;61070;50.794;7.054;2023-04-24T00:05:13;99446.44;;;11.57;89.91
72925;BME280;61070;50.794;7.054;2023-04-24T00:07:40;99448.09;;;11.60;89.39
72925;BME280;61070;50.794;7.054;2023-04-24T00:10:06;99452.69;;;11.55;89.56
72925;BME280;61070;50.794;7.054;2023-04-24T00:12:32;99451.09;;;11.51;89.06
72925;BME280;61070;50.794;7.054;2023-04-24T00:14:57;99443.63;;;11.37;89.92
72925;BME280;61070;50.794;7.054;2023-04-24T00:17:23;99448.06;;;11.36;89.75
72925;BME280;61070;50.794;7.054;2023-04-24T00:19:48;99433.94;;;11.36;89.98
72925;BME280;61070;50.794;7.054;2023-04-24T00:22:16;99434.25;;;11.27;91.12
72925;BME280;61070;50.794;7.054;2023-04-24T00:24:42;99436.97;;;11.25;90.72
72925;BME280;61070;50.794;7.054;2023-04-24T00:27:07;99438.00;;;11.21;91.57
72925;BME280;61070;50.794;7.054;2023-04-24T00:29:33;99431.78;;;11.22;91.25
72925;BME280;61070;50.794;7.054;2023-04-24T00:31:58;99426.47;;;11.22;91.62
72925;BME280;61070;50.794;7.054;2023-04-24T00:34:24;99420.34;;;11.20;91.43
72925;BME280;61070;50.794;7.054;2023-04-24T00:36:49;99419.91;;;11.32;90.76
72925;BME280;61070;50.794;7.054;2023-04-24T00:39:18;99429.38;;;11.40;90.81
72925;BME280;61070;50.794;7.054;2023-04-24T00:41:43;99415.44;;;11.34;90.63
72925;BME280;61070;50.794;7.054;2023-04-24T00:44:08;99424.16;;;11.38;90.55
72925;BME280;61070;50.794;7.054;2023-04-24T00:46:34;99421.63;;;11.35;91.39
72925;BME280;61070;50.794;7.054;2023-04-24T00:48:59;99426.06;;;11.34;91.85
72925;BME280;61070;50.794;7.054;2023-04-24T00:51:24;99419.03;;;11.33;91.25
72925;BME280;61070;50.794;7.054;2023-04-24T00:53:50;99413.59;;;11.36;91.35
72925;BME280;61070;50.794;7.054;2023-04-24T00:56:16;99417.00;;;11.40;90.84
72925;BME280;61070;50.794;7.054;2023-04-24T00:58:42;99413.28;;;11.46;90.70
72925;BME280;61070;50.794;7.054;2023-04-24T01:01:09;99423.00;;;11.45;90.14
72925;BME280;61070;50.794;7.054;2023-04-24T01:03:35;99418.50;;;11.47;90.77
72925;BME280;61070;50.794;7.054;2023-04-24T01:06:02;99412.09;;;11.53;90.11
72925;BME280;61070;50.794;7.054;2023-04-24T01:08:28;99414.75;;;11.53;90.39
72925;BME280;61070;50.794;7.054;2023-04-24T01:10:55;99412.91;;;11.55;89.80
72925;BME280;61070;50.794;7.054;2023-04-24T01:13:22;99421.78;;;11.54;90.24
72925;BME280;61070;50.794;7.054;2023-04-24T01:15:48;99419.00;;;11.58;89.40
72925;BME280;61070;50.794;7.054;2023-04-24T01:18:14;99418.47;;;11.49;91.00
72925;BME280;61070;50.794;7.054;2023-04-24T01:20:40;99423.44;;;11.58;87.45
72925;BME280;61070;50.794;7.054;2023-04-24T01:23:07;99440.28;;;11.57;87.92
72925;BME280;61070;50.794;7.054;2023-04-24T01:25:33;99451.88;;;11.53;88.23
72925;BME280;61070;50.794;7.054;2023-04-24T01:27:59;99450.03;;;11.55;90.13
72925;BME280;61070;50.794;7.054;2023-04-24T01:30:25;99452.44;;;11.37;89.96
72925;BME280;61070;50.794;7.054;2023-04-24T01:32:51;99450.91;;;11.30;89.62
72925;BME280;61070;50.794;7.054;2023-04-24T01:35:17;99450.66;;;11.13;89.68
72925;BME280;61070;50.794;7.054;2023-04-24T01:37:42;99455.66;;;11.21;87.08
72925;BME280;61070;50.794;7.054;2023-04-24T01:40:08;99449.69;;;11.16;83.39
72925;BME280;61070;50.794;7.054;2023-04-24T01:42:34;99453.34;;;11.12;82.42
72925;BME280;61070;50.794;7.054;2023-04-24T01:45:00;99456.56;;;11.21;80.52
72925;BME280;61070;50.794;7.054;2023-04-24T01:47:27;99455.78;;;11.18;78.97
72925;BME280;61070;50.794;7.054;2023-04-24T01:49:52;99455.78;;;11.18;78.92
72925;BME280;61070;50.794;7.054;2023-04-24T01:52:17;99449.22;;;11.03;78.89
72925;BME280;61070;50.794;7.054;2023-04-24T01:54:44;99447.81;;;10.93;78.88
72925;BME280;61070;50.794;7.054;2023-04-24T01:57:10;99442.56;;;10.91;79.29
72925;BME280;61070;50.794;7.054;2023-04-24T01:59:35;99440.78;;;10.92;78.69
72925;BME280;61070;50.794;7.054;2023-04-24T02:02:02;99441.69;;;10.91;78.32
72925;BME280;61070;50.794;7.054;2023-04-24T02:04:27;99440.56;;;10.98;78.00
72925;BME280;61070;50.794;7.054;2023-04-24T02:06:53;99427.22;;;10.74;78.69
72925;BME280;61070;50.794;7.054;2023-04-24T02:09:18;99439.03;;;10.64;80.21
72925;BME280;61070;50.794;7.054;2023-04-24T02:11:43;99443.44;;;10.65;79.91
72925;BME280;61070;50.794;7.054;2023-04-24T02:14:08;99450.34;;;10.69;79.85
72925;BME280;61070;50.794;7.054;2023-04-24T02:16:34;99450.81;;;10.56;79.79
72925;BME280;61070;50.794;7.054;2023-04-24T02:19:01;99459.63;;;10.56;79.60
72925;BME280;61070;50.794;7.054;2023-04-24T02:21:26;99462.53;;;10.47;80.33
72925;BME280;61070;50.794;7.054;2023-04-24T02:23:53;99469.91;;;10.37;80.52
72925;BME280;61070;50.794;7.054;2023-04-24T02:26:18;99475.09;;;10.40;80.54
72925;BME280;61070;50.794;7.054;2023-04-24T02:28:43;99472.09;;;10.23;81.26
72925;BME280;61070;50.794;7.054;2023-04-24T02:31:09;99492.41;;;10.23;81.64
72925;BME280;61070;50.794;7.054;2023-04-24T02:33:34;99480.34;;;10.12;81.97
72925;BME280;61070;50.794;7.054;2023-04-24T02:36:01;99489.56;;;9.99;81.94
72925;BME280;61070;50.794;7.054;2023-04-24T02:38:26;99498.09;;;9.78;82.17
72925;BME280;61070;50.794;7.054;2023-04-24T02:40:51;99499.63;;;9.86;80.95
72925;BME280;61070;50.794;7.054;2023-04-24T02:43:17;99506.03;;;9.78;80.69
72925;BME280;61070;50.794;7.054;2023-04-24T02:45:42;99502.94;;;9.62;80.95
72925;BME280;61070;50.794;7.054;2023-04-24T02:48:07;99510.78;;;9.65;81.10
72925;BME280;61070;50.794;7.054;2023-04-24T02:50:33;99512.06;;;9.50;81.77
72925;BME280;61070;50.794;7.054;2023-04-24T02:52:58;99518.78;;;9.63;80.66
72925;BME280;61070;50.794;7.054;2023-04-24T02:55:24;99521.41;;;9.63;80.90
72925;BME280;61070;50.794;7.054;2023-04-24T02:57:50;99520.91;;;9.49;80.97
72925;BME280;61070;50.794;7.054;2023-04-24T03:00:15;99527.03;;;9.51;81.03
72925;BME280;61070;50.794;7.054;2023-04-24T03:02:41;99530.38;;;9.58;80.18
72925;BME280;61070;50.794;7.054;2023-04-24T03:05:07;99526.13;;;9.52;80.30
72925;BME280;61070;50.794;7.054;2023-04-24T03:07:34;99529.59;;;9.54;80.23
72925;BME280;61070;50.794;7.054;2023-04-24T03:09:59;99534.13;;;9.49;80.85
72925;BME280;61070;50.794;7.054;2023-04-24T03:12:24;99538.38;;;9.55;80.13
72925;BME280;61070;50.794;7.054;2023-04-24T03:14:50;99533.00;;;9.58;80.52
72925;BME280;61070;50.794;7.054;2023-04-24T03:17:15;99534.34;;;9.42;81.17
72925;BME280;61070;50.794;7.054;2023-04-24T03:19:41;99528.13;;;9.43;80.44
72925;BME280;61070;50.794;7.054;2023-04-24T03:22:06;99525.59;;;9.38;81.23
72925;BME280;61070;50.794;7.054;2023-04-24T03:24:31;99518.53;;;9.39;81.71
72925;BME280;61070;50.794;7.054;2023-04-24T03:26:57;99521.66;;;9.20;82.16
72925;BME280;61070;50.794;7.054;2023-04-24T03:29:22;99525.13;;;9.22;82.05
72925;BME280;61070;50.794;7.054;2023-04-24T03:31:48;99528.78;;;9.18;81.90
72925;BME280;61070;50.794;7.054;2023-04-24T03:34:13;99531.50;;;9.14;82.12
72925;BME280;61070;50.794;7.054;2023-04-24T03:36:38;99533.25;;;9.15;81.76
72925;BME280;61070;50.794;7.054;2023-04-24T03:39:04;99523.75;;;9.08;81.98
72925;BME280;61070;50.794;7.054;2023-04-24T03:41:29;99535.16;;;9.10;81.88
72925;BME280;61070;50.794;7.054;2023-04-24T03:43:55;99537.88;;;9.07;82.07
72925;BME280;61070;50.794;7.054;2023-04-24T03:46:20;99526.41;;;9.08;81.78
72925;BME280;61070;50.794;7.054;2023-04-24T03:48:46;99514.16;;;9.03;81.97
72925;BME280;61070;50.794;7.054;2023-04-24T03:51:11;99518.03;;;8.89;83.07
72925;BME280;61070;50.794;7.054;2023-04-24T03:53:36;99509.03;;;8.97;82.40
72925;BME280;61070;50.794;7.054;2023-04-24T03:56:02;99514.44;;;8.91;83.03
72925;BME280;61070;50.794;7.054;2023-04-24T03:58:27;99523.06;;;8.99;82.55
72925;BME280;61070;50.794;7.054;2023-04-24T04:00:52;99523.25;;;8.92;82.65
72925;BME280;61070;50.794;7.054;2023-04-24T04:03:17;99530.88;;;9.04;82.28
72925;BME280;61070;50.794;7.054;2023-04-24T04:05:43;99527.56;;;8.94;82.67
72925;BME280;61070;50.794;7.054;2023-04-24T04:08:08;99533.72;;;8.96;82.71
72925;BME280;61070;50.794;7.054;2023-04-24T04:10:33;99530.22;;;8.94;82.88
72925;BME280;61070;50.794;7.054;2023-04-24T04:12:58;99528.78;;;9.17;81.65
72925;BME280;61070;50.794;7.054;2023-04-24T04:15:25;99529.03;;;9.08;82.13
72925;BME280;61070;50.794;7.054;2023-04-24T04:17:50;99523.81;;;9.04;82.12
72925;BME280;61070;50.794;7.054;2023-04-24T04:20:15;99530.22;;;8.94;83.38
72925;BME280;61070;50.794;7.054;2023-04-24T04:22:40;99544.63;;;8.81;84.43
72925;BME280;61070;50.794;7.054;2023-04-24T04:25:06;99540.38;;;8.75;84.42
72925;BME280;61070;50.794;7.054;2023-04-24T04:27:31;99539.88;;;8.97;82.75
72925;BME280;61070;50.794;7.054;2023-04-24T04:29:58;99539.25;;;8.86;83.90
72925;BME280;61070;50.794;7.054;2023-04-24T04:32:26;99545.50;;;8.82;84.68
72925;BME280;61070;50.794;7.054;2023-04-24T04:34:51;99545.28;;;8.91;84.54
72925;BME280;61070;50.794;7.054;2023-04-24T04:37:18;99557.56;;;8.92;83.89
72925;BME280;61070;50.794;7.054;2023-04-24T04:39:43;99551.13;;;9.03;83.50
72925;BME280;61070;50.794;7.054;2023-04-24T04:42:09;99547.66;;;9.01;83.54
72925;BME280;61070;50.794;7.054;2023-04-24T04:44:34;99546.34;;;9.19;83.48
72925;BME280;61070;50.794;7.054;2023-04-24T04:47:01;99555.03;;;9.24;83.12
72925;BME280;61070;50.794;7.054;2023-04-24T04:49:28;99554.94;;;9.27;82.86
72925;BME280;61070;50.794;7.054;2023-04-24T04:51:54;99558.41;;;9.31;83.17
72925;BME280;61070;50.794;7.054;2023-04-24T04:54:19;99558.22;;;9.37;83.08
72925;BME280;61070;50.794;7.054;2023-04-24T04:56:44;99558.31;;;9.34;83.31
72925;BME280;61070;50.794;7.054;2023-04-24T04:59:10;99550.66;;;9.23;83.77
72925;BME280;61070;50.794;7.054;2023-04-24T05:01:36;99553.63;;;9.10;83.44
72925;BME280;61070;50.794;7.054;2023-04-24T05:04:01;99547.44;;;9.11;83.22
72925;BME280;61070;50.794;7.054;2023-04-24T05:06:27;99550.34;;;9.00;84.40
72925;BME280;61070;50.794;7.054;2023-04-24T05:08:52;99551.38;;;8.93;84.66
72925;BME280;61070;50.794;7.054;2023-04-24T05:11:22;99556.91;;;8.84;84.62
72925;BME280;61070;50.794;7.054;2023-04-24T05:13:47;99563.72;;;8.92;83.98
72925;BME280;61070;50.794;7.054;2023-04-24T05:16:12;99562.72;;;8.98;84.33
72925;BME280;61070;50.794;7.054;2023-04-24T05:18:38;99573.25;;;8.99;84.60
72925;BME280;61070;50.794;7.054;2023-04-24T05:21:03;99572.31;;;9.02;85.39
72925;BME280;61070;50.794;7.054;2023-04-24T05:23:28;99569.44;;;9.11;85.32
72925;BME280;61070;50.794;7.054;2023-04-24T05:25:54;99577.06;;;9.23;85.59
72925;BME280;61070;50.794;7.054;2023-04-24T05:28:19;99573.25;;;9.35;84.60
72925;BME280;61070;50.794;7.054;2023-04-24T05:30:45;99574.94;;;9.38;84.47
72925;BME280;61070;50.794;7.054;2023-04-24T05:33:11;99574.03;;;9.40;83.68
72925;BME280;61070;50.794;7.054;2023-04-24T05:35:36;99573.16;;;9.38;84.21
72925;BME280;61070;50.794;7.054;2023-04-24T05:38:01;99579.31;;;9.39;83.73
72925;BME280;61070;50.794;7.054;2023-04-24T05:40:27;99581.78;;;9.46;83.71
72925;BME280;61070;50.794;7.054;2023-04-24T05:42:52;99578.09;;;9.53;83.61
72925;BME280;61070;50.794;7.054;2023-04-24T05:45:17;99581.75;;;9.48;83.07
72925;BME280;61070;50.794;7.054;2023-04-24T05:47:43;99588.81;;;9.47;83.42
72925;BME280;61070;50.794;7.054;2023-04-24T05:50:09;99590.34;;;9.56;83.33
72925;BME280;61070;50.794;7.054;2023-04-24T05:52:35;99587.66;;;9.57;82.62
72925;BME280;61070;50.794;7.054;2023-04-24T05:55:00;99584.94;;;9.60;83.07
72925;BME280;61070;50.794;7.054;2023-04-24T05:57:26;99590.47;;;9.51;83.59
72925;BME280;61070;50.794;7.054;2023-04-24T05:59:51;99583.81;;;9.35;83.53
72925;BME280;61070;50.794;7.054;2023-04-24T06:02:16;99587.06;;;9.46;83.64
72925;BME280;61070;50.794;7.054;2023-04-24T06:04:42;99587.97;;;9.45;83.49
72925;BME280;61070;50.794;7.054;2023-04-24T06:07:07;99598.41;;;9.51;84.29
72925;BME280;61070;50.794;7.054;2023-04-24T06:09:32;99592.31;;;9.48;84.38
72925;BME280;61070;50.794;7.054;2023-04-24T06:11:58;99601.00;;;9.53;84.58
72925;BME280;61070;50.794;7.054;2023-04-24T06:14:25;99608.06;;;9.52;85.09
72925;BME280;61070;50.794;7.054;2023-04-24T06:16:50;99597.56;;;9.49;86.81
72925;BME280;61070;50.794;7.054;2023-04-24T06:19:15;99609.75;;;9.55;87.49
72925;BME280;61070;50.794;7.054;2023-04-24T06:21:41;99614.91;;;9.59;85.97
72925;BME280;61070;50.794;7.054;2023-04-24T06:24:06;99623.63;;;9.65;87.39
72925;BME280;61070;50.794;7.054;2023-04-24T06:26:32;99625.34;;;9.66;86.40
72925;BME280;61070;50.794;7.054;2023-04-24T06:28:57;99617.44;;;9.66;88.71
72925;BME280;61070;50.794;7.054;2023-04-24T06:31:24;99629.56;;;9.74;87.78
72925;BME280;61070;50.794;7.054;2023-04-24T06:33:49;99625.72;;;9.84;85.96
72925;BME280;61070;50.794;7.054;2023-04-24T06:36:15;99616.06;;;9.83;83.87
72925;BME280;61070;50.794;7.054;2023-04-24T06:38:41;99617.84;;;9.83;84.61
72925;BME280;61070;50.794;7.054;2023-04-24T06:41:06;99633.50;;;9.90;85.17
72925;BME280;61070;50.794;7.054;2023-04-24T06:43:31;99627.59;;;9.81;85.76
72925;BME280;61070;50.794;7.054;2023-04-24T06:45:57;99629.69;;;9.68;89.67
72925;BME280;61070;50.794;7.054;2023-04-24T06:48:23;99633.19;;;9.69;91.97
72925;BME280;61070;50.794;7.054;2023-04-24T06:50:49;99624.63;;;9.59;92.18
72925;BME280;61070;50.794;7.054;2023-04-24T06:53:14;99632.16;;;9.76;92.09
72925;BME280;61070;50.794;7.054;2023-04-24T06:55:40;99630.81;;;9.58;93.21
72925;BME280;61070;50.794;7.054;2023-04-24T06:58:05;99629.88;;;9.60;92.54
72925;BME280;61070;50.794;7.054;2023-04-24T07:00:31;99640.66;;;9.53;92.92
72925;BME280;61070;50.794;7.054;2023-04-24T07:02:56;99641.84;;;9.40;94.82
72925;BME280;61070;50.794;7.054;2023-04-24T07:05:22;99640.81;;;9.47;93.60
72925;BME280;61070;50.794;7.054;2023-04-24T07:07:48;99653.94;;;9.50;91.88
72925;BME280;61070;50.794;7.054;2023-04-24T07:10:14;99638.31;;;9.41;92.87
72925;BME280;61070;50.794;7.054;2023-04-24T07:12:40;99645.34;;;9.42;93.62
72925;BME280;61070;50.794;7.054;2023-04-24T07:15:06;99647.13;;;9.41;94.90
72925;BME280;61070;50.794;7.054;2023-04-24T07:17:32;99642.88;;;9.34;94.60
72925;BME280;61070;50.794;7.054;2023-04-24T07:19:58;99642.75;;;9.40;96.57
72925;BME280;61070;50.794;7.054;2023-04-24T07:22:23;99645.38;;;9.40;93.95
72925;BME280;61070;50.794;7.054;2023-04-24T07:24:50;99655.06;;;9.41;94.95
72925;BME280;61070;50.794;7.054;2023-04-24T07:27:16;99657.75;;;9.38;94.42
72925;BME280;61070;50.794;7.054;2023-04-24T07:29:42;99666.78;;;9.29;95.50
72925;BME280;61070;50.794;7.054;2023-04-24T07:32:08;99669.56;;;9.23;95.80
72925;BME280;61070;50.794;7.054;2023-04-24T07:34:34;99667.06;;;9.16;95.01
72925;BME280;61070;50.794;7.054;2023-04-24T07:36:59;99668.81;;;9.17;97.16
72925;BME280;61070;50.794;7.054;2023-04-24T07:39:24;99682.13;;;9.12;96.68
72925;BME280;61070;50.794;7.054;2023-04-24T07:41:51;99686.59;;;9.10;97.33
72925;BME280;61070;50.794;7.054;2023-04-24T07:44:16;99683.88;;;9.13;97.50
72925;BME280;61070;50.794;7.054;2023-04-24T07:46:41;99693.78;;;9.03;98.28
72925;BME280;61070;50.794;7.054;2023-04-24T07:49:07;99702.59;;;9.02;98.58
72925;BME280;61070;50.794;7.054;2023-04-24T07:51:33;99701.84;;;8.97;100.00
72925;BME280;61070;50.794;7.054;2023-04-24T07:54:03;99705.28;;;9.01;100.00
72925;BME280;61070;50.794;7.054;2023-04-24T07:56:28;99719.53;;;8.92;100.00
72925;BME280;61070;50.794;7.054;2023-04-24T07:58:56;99728.69;;;8.76;100.00
72925;BME280;61070;50.794;7.054;2023-04-24T08:01:21;99723.50;;;8.71;100.00
72925;BME280;61070;50.794;7.054;2023-04-24T08:03:46;99734.91;;;8.73;100.00
72925;BME280;61070;50.794;7.054;2023-04-24T08:06:12;99738.50;;;8.69;100.00
72925;BME280;61070;50.794;7.054;2023-04-24T08:08:37;99740.41;;;8.63;100.00
72925;BME280;61070;50.794;7.054;2023-04-24T08:11:02;99748.53;;;8.52;100.00
72925;BME280;61070;50.794;7.054;2023-04-24T08:13:28;99751.44;;;8.38;100.00
72925;BME280;61070;50.794;7.054;2023-04-24T08:15:53;99756.91;;;8.25;100.00
72925;BME280;61070;50.794;7.054;2023-04-24T08:18:18;99760.31;;;8.31;100.00
72925;BME280;61070;50.794;7.054;2023-04-24T08:20:44;99764.66;;;8.35;100.00
72925;BME280;61070;50.794;7.054;2023-04-24T08:23:10;99763.91;;;8.27;100.00
72925;BME280;61070;50.794;7.054;2023-04-24T08:25:35;99784.06;;;8.31;100.00
72925;BME280;61070;50.794;7.054;2023-04-24T08:28:02;99768.50;;;8.16;100.00
72925;BME280;61070;50.794;7.054;2023-04-24T08:30:29;99767.47;;;8.23;100.00
72925;BME280;61070;50.794;7.054;2023-04-24T08:32:54;99781.44;;;8.30;100.00
72925;BME280;61070;50.794;7.054;2023-04-24T08:35:19;99797.22;;;8.34;100.00
72925;BME280;61070;50.794;7.054;2023-04-24T08:37:45;99806.31;;;8.16;100.00
72925;BME280;61070;50.794;7.054;2023-04-24T08:40:13;99828.34;;;8.12;100.00
72925;BME280;61070;50.794;7.054;2023-04-24T08:42:39;99838.06;;;8.09;100.00
72925;BME280;61070;50.794;7.054;2023-04-24T08:45:07;99826.72;;;8.02;100.00
72925;BME280;61070;50.794;7.054;2023-04-24T08:47:32;99834.88;;;7.88;100.00
72925;BME280;61070;50.794;7.054;2023-04-24T08:49:59;99852.38;;;7.93;100.00
72925;BME280;61070;50.794;7.054;2023-04-24T08:52:28;99837.72;;;7.75;100.00
72925;BME280;61070;50.794;7.054;2023-04-24T08:54:53;99848.31;;;7.69;100.00
72925;BME280;61070;50.794;7.054;2023-04-24T08:57:19;99857.22;;;7.62;100.00
72925;BME280;61070;50.794;7.054;2023-04-24T08:59:45;99862.31;;;7.74;100.00
72925;BME280;61070;50.794;7.054;2023-04-24T09:02:12;99858.09;;;7.62;100.00
72925;BME280;61070;50.794;7.054;2023-04-24T09:04:39;99860.66;;;7.67;100.00
72925;BME280;61070;50.794;7.054;2023-04-24T09:07:06;99857.16;;;7.66;100.00
72925;BME280;61070;50.794;7.054;2023-04-24T09:09:32;99861.50;;;7.72;100.00
72925;BME280;61070;50.794;7.054;2023-04-24T09:11:58;99875.41;;;7.80;100.00
72925;BME280;61070;50.794;7.054;2023-04-24T09:14:23;99879.72;;;7.87;100.00
72925;BME280;61070;50.794;7.054;2023-04-24T09:16:49;99873.66;;;7.82;100.00
72925;BME280;61070;50.794;7.054;2023-04-24T09:19:15;99885.03;;;7.84;100.00
72925;BME280;61070;50.794;7.054;2023-04-24T09:21:40;99897.34;;;7.83;100.00
72925;BME280;61070;50.794;7.054;2023-04-24T09:24:15;99893.78;;;7.87;100.00
72925;BME280;61070;50.794;7.054;2023-04-24T09:26:43;99889.44;;;7.83;100.00
72925;BME280;61070;50.794;7.054;2023-04-24T09:29:15;99893.75;;;7.89;100.00
72925;BME280;61070;50.794;7.054;2023-04-24T09:31:41;99902.44;;;7.96;100.00
72925;BME280;61070;50.794;7.054;2023-04-24T09:34:06;99910.22;;;8.03;100.00
72925;BME280;61070;50.794;7.054;2023-04-24T09:36:40;99912.78;;;8.11;100.00
72925;BME280;61070;50.794;7.054;2023-04-24T09:39:11;99916.88;;;8.30;100.00
72925;BME280;61070;50.794;7.054;2023-04-24T09:41:47;99923.00;;;8.32;100.00
72925;BME280;61070;50.794;7.054;2023-04-24T09:44:15;99916.97;;;8.24;100.00
72925;BME280;61070;50.794;7.054;2023-04-24T09:46:42;99923.81;;;8.37;100.00
72925;BME280;61070;50.794;7.054;2023-04-24T09:49:10;99925.41;;;8.51;100.00
72925;BME280;61070;50.794;7.054;2023-04-24T09:51:37;99927.13;;;8.52;100.00
72925;BME280;61070;50.794;7.054;2023-04-24T09:54:04;99937.72;;;8.49;100.00
72925;BME280;61070;50.794;7.054;2023-04-24T09:56:32;99941.06;;;8.60;100.00
72925;BME280;61070;50.794;7.054;2023-04-24T09:59:05;99937.84;;;8.42;100.00
72925;BME280;61070;50.794;7.054;2023-04-24T10:01:32;99938.59;;;8.51;100.00
72925;BME280;61070;50.794;7.054;2023-04-24T10:03:57;99952.47;;;8.63;100.00
72925;BME280;61070;50.794;7.054;2023-04-24T10:06:35;99945.47;;;8.59;100.00
72925;BME280;61070;50.794;7.054;2023-04-24T10:09:01;99960.59;;;8.50;100.00
72925;BME280;61070;50.794;7.054;2023-04-24T10:11:29;99949.94;;;8.56;100.00
72925;BME280;61070;50.794;7.054;2023-04-24T10:13:55;99963.25;;;8.48;100.00
72925;BME280;61070;50.794;7.054;2023-04-24T10:16:22;99964.81;;;8.61;100.00
72925;BME280;61070;50.794;7.054;2023-04-24T10:18:48;99972.72;;;8.63;100.00
72925;BME280;61070;50.794;7.054;2023-04-24T10:21:14;99966.38;;;8.71;100.00
72925;BME280;61070;50.794;7.054;2023-04-24T10:23:41;99962.09;;;8.66;100.00
72925;BME280;61070;50.794;7.054;2023-04-24T10:26:09;99970.44;;;8.95;100.00
72925;BME280;61070;50.794;7.054;2023-04-24T10:28:36;99965.81;;;9.07;100.00
72925;BME280;61070;50.794;7.054;2023-04-24T10:31:01;99968.72;;;9.41;100.00
72925;BME280;61070;50.794;7.054;2023-04-24T10:33:27;99967.53;;;9.55;100.00
72925;BME280;61070;50.794;7.054;2023-04-24T10:35:54;99975.66;;;9.89;100.00
72925;BME280;61070;50.794;7.054;2023-04-24T10:38:25;99972.22;;;9.86;100.00
72925;BME280;61070;50.794;7.054;2023-04-24T10:41:13;99971.97;;;9.98;100.00
72925;BME280;61070;50.794;7.054;2023-04-24T10:43:45;99975.66;;;9.89;100.00
72925;BME280;61070;50.794;7.054;2023-04-24T10:46:16;99983.63;;;9.88;100.00
72925;BME280;61070;50.794;7.054;2023-04-24T10:48:52;99978.34;;;9.88;100.00
72925;BME280;61070;50.794;7.054;2023-04-24T10:51:21;99989.94;;;9.81;100.00
72925;BME280;61070;50.794;7.054;2023-04-24T10:53:49;99986.09;;;9.97;100.00
72925;BME280;61070;50.794;7.054;2023-04-24T10:56:16;99994.66;;;10.10;100.00
72925;BME280;61070;50.794;7.054;2023-04-24T10:58:43;99984.72;;;10.19;100.00
72925;BME280;61070;50.794;7.054;2023-04-24T11:01:30;99996.81;;;10.33;100.00
72925;BME280;61070;50.794;7.054;2023-04-24T11:03:58;99991.22;;;10.46;99.74
72925;BME280;61070;50.794;7.054;2023-04-24T11:06:34;99998.66;;;10.29;98.42
72925;BME280;61070;50.794;7.054;2023-04-24T11:09:10;100004.09;;;10.23;97.88
72925;BME280;61070;50.794;7.054;2023-04-24T11:11:45;100001.91;;;10.00;98.48
72925;BME280;61070;50.794;7.054;2023-04-24T11:14:10;100015.78;;;10.11;100.00
72925;BME280;61070;50.794;7.054;2023-04-24T11:16:46;100010.91;;;9.91;100.00
72925;BME280;61070;50.794;7.054;2023-04-24T11:21:59;100012.56;;;9.97;100.00
72925;BME280;61070;50.794;7.054;2023-04-24T11:24:49;100020.53;;;9.94;100.00
72925;BME280;61070;50.794;7.054;2023-04-24T11:27:21;100024.38;;;9.79;100.00
72925;BME280;61070;50.794;7.054;2023-04-24T11:29:47;100022.44;;;9.87;100.00
72925;BME280;61070;50.794;7.054;2023-04-24T11:34:52;100025.09;;;9.87;100.00
72925;BME280;61070;50.794;7.054;2023-04-24T11:37:18;100038.72;;;10.11;100.00
72925;BME280;61070;50.794;7.054;2023-04-24T11:39:43;100036.00;;;10.14;100.00
72925;BME280;61070;50.794;7.054;2023-04-24T11:42:09;100040.34;;;10.16;100.00
72925;BME280;61070;50.794;7.054;2023-04-24T11:44:35;100042.13;;;10.16;100.00
72925;BME280;61070;50.794;7.054;2023-04-24T11:47:04;100052.81;;;10.11;100.00
72925;BME280;61070;50.794;7.054;2023-04-24T11:49:29;100051.06;;;10.12;100.00
72925;BME280;61070;50.794;7.054;2023-04-24T11:51:55;100041.88;;;10.30;100.00
72925;BME280;61070;50.794;7.054;2023-04-24T11:54:21;100036.34;;;10.42;97.53
72925;BME280;61070;50.794;7.054;2023-04-24T11:56:47;100033.47;;;10.51;98.05
72925;BME280;61070;50.794;7.054;2023-04-24T11:59:13;100035.81;;;10.63;96.97
72925;BME280;61070;50.794;7.054;2023-04-24T12:01:48;100034.38;;;10.89;100.00
72925;BME280;61070;50.794;7.054;2023-04-24T12:04:15;100041.03;;;11.05;96.76
72925;BME280;61070;50.794;7.054;2023-04-24T12:07:00;100047.81;;;11.17;93.05
72925;BME280;61070;50.794;7.054;2023-04-24T12:09:26;100038.84;;;11.22;95.09
72925;BME280;61070;50.794;7.054;2023-04-24T12:11:56;100053.16;;;11.49;92.35
72925;BME280;61070;50.794;7.054;2023-04-24T12:14:24;100053.84;;;11.23;91.81
72925;BME280;61070;50.794;7.054;2023-04-24T12:16:50;100047.06;;;11.12;89.37
72925;BME280;61070;50.794;7.054;2023-04-24T12:19:25;100057.22;;;11.28;93.46
72925;BME280;61070;50.794;7.054;2023-04-24T12:22:05;100054.97;;;11.13;93.77
72925;BME280;61070;50.794;7.054;2023-04-24T12:24:31;100053.22;;;11.12;91.76
72925;BME280;61070;50.794;7.054;2023-04-24T12:26:56;100058.13;;;10.92;92.52
72925;BME280;61070;50.794;7.054;2023-04-24T12:29:23;100054.16;;;11.11;92.70
72925;BME280;61070;50.794;7.054;2023-04-24T12:31:50;100056.59;;;11.19;92.67
72925;BME280;61070;50.794;7.054;2023-04-24T12:34:20;100061.31;;;11.06;91.71
72925;BME280;61070;50.794;7.054;2023-04-24T12:36:46;100067.94;;;10.88;92.69
72925;BME280;61070;50.794;7.054;2023-04-24T12:39:18;100059.75;;;10.97;92.29
72925;BME280;61070;50.794;7.054;2023-04-24T12:41:55;100065.19;;;10.93;90.98
72925;BME280;61070;50.794;7.054;2023-04-24T12:44:29;100061.28;;;11.07;90.89
72925;BME280;61070;50.794;7.054;2023-04-24T12:46:55;100060.84;;;11.26;92.93
72925;BME280;61070;50.794;7.054;2023-04-24T12:49:20;100061.16;;;11.48;91.71
72925;BME280;61070;50.794;7.054;2023-04-24T12:51:46;100059.78;;;11.67;90.28
72925;BME280;61070;50.794;7.054;2023-04-24T12:54:11;100062.81;;;11.52;88.62
72925;BME280;61070;50.794;7.054;2023-04-24T12:56:36;100058.88;;;11.68;90.43
72925;BME280;61070;50.794;7.054;2023-04-24T12:59:04;100061.25;;;11.43;86.24
72925;BME280;61070;50.794;7.054;2023-04-24T13:01:30;100055.06;;;11.78;87.95
72925;BME280;61070;50.794;7.054;2023-04-24T13:03:55;100057.13;;;12.00;84.97